createdAt,value
2023-05-18T00:00:38.266Z,1010.7
2023-05-18T00:01:39.447Z,1010.7
2023-05-18T00:02:40.851Z,1010.7
2023-05-18T00:03:44.977Z,1010.7
2023-05-18T00:04:46.758Z,1010.7
2023-05-18T00:05:48.123Z,1010.7
2023-05-18T00:06:51.887Z,1010.8
2023-05-18T00:08:13.163Z,1010.8
2023-05-18T00:09:14.353Z,1010.8
2023-05-18T00:10:20.948Z,1010.8
2023-05-18T00:11:24.434Z,1010.8
2023-05-18T00:12:28.288Z,1010.8
2023-05-18T00:13:32.177Z,1010.8
2023-05-18T00:14:33.422Z,1010.8
2023-05-18T00:15:34.613Z,1010.8
2023-05-18T00:16:38.897Z,1010.8
2023-05-18T00:17:42.413Z,1010.8
2023-05-18T00:18:46.348Z,1010.8
2023-05-18T00:19:47.570Z,1010.8
2023-05-18T00:20:48.750Z,1010.9
2023-05-18T00:21:52.591Z,1010.9
2023-05-18T00:22:53.800Z,1010.9
2023-05-18T00:23:55.082Z,1010.8
2023-05-18T00:24:59.317Z,1010.8
2023-05-18T00:26:05.920Z,1010.8
2023-05-18T00:27:07.070Z,1010.9
2023-05-18T00:28:11.230Z,1010.9
2023-05-18T00:29:12.390Z,1010.9
2023-05-18T00:30:13.656Z,1010.9
2023-05-18T00:31:14.925Z,1010.9
2023-05-18T00:32:16.189Z,1010.9
2023-05-18T00:33:17.366Z,1010.9
2023-05-18T00:34:18.543Z,1010.9
2023-05-18T00:35:19.678Z,1010.8
2023-05-18T00:36:20.849Z,1010.8
2023-05-18T00:37:22.020Z,1010.9
2023-05-18T00:38:23.209Z,1010.9
2023-05-18T00:39:24.347Z,1010.9
2023-05-18T00:40:25.514Z,1010.9
2023-05-18T00:41:26.684Z,1010.9
2023-05-18T00:42:27.849Z,1010.9
2023-05-18T00:43:29.010Z,1010.9
2023-05-18T00:44:30.181Z,1010.9
2023-05-18T00:45:32.032Z,1010.9
2023-05-18T00:46:33.857Z,1010.9
2023-05-18T00:47:35.297Z,1010.9
2023-05-18T00:48:36.476Z,1010.9
2023-05-18T00:49:37.642Z,1010.9
2023-05-18T00:50:38.802Z,1010.9
2023-05-18T00:51:39.971Z,1010.9
2023-05-18T00:52:41.165Z,1010.9
2023-05-18T00:53:44.528Z,1010.9
2023-05-18T00:54:45.692Z,1010.9
2023-05-18T00:55:46.854Z,1010.9
2023-05-18T00:56:48.019Z,1010.9
2023-05-18T00:57:49.207Z,1010.9
2023-05-18T00:58:50.351Z,1010.9
2023-05-18T00:59:51.519Z,1010.9
2023-05-18T01:00:52.765Z,1011
2023-05-18T01:01:53.996Z,1011
2023-05-18T01:02:55.324Z,1010.9
2023-05-18T01:03:56.667Z,1010.9
2023-05-18T01:04:57.816Z,1011
2023-05-18T01:05:58.979Z,1011
2023-05-18T01:07:00.351Z,1011
2023-05-18T01:08:01.512Z,1011
2023-05-18T01:09:02.685Z,1011
2023-05-18T01:10:03.846Z,1011
2023-05-18T01:11:05.050Z,1011
2023-05-18T01:12:06.197Z,1011
2023-05-18T01:13:07.378Z,1011
2023-05-18T01:14:08.534Z,1011
2023-05-18T01:15:09.736Z,1011
2023-05-18T01:16:11.193Z,1011
2023-05-18T01:17:12.686Z,1011
2023-05-18T01:18:13.963Z,1011
2023-05-18T01:19:15.225Z,1011
2023-05-18T01:20:16.500Z,1011
2023-05-18T01:21:17.652Z,1011.1
2023-05-18T01:22:18.816Z,1011.1
2023-05-18T01:23:19.978Z,1011.1
2023-05-18T01:24:21.152Z,1011.1
2023-05-18T01:25:22.313Z,1011.1
2023-05-18T01:26:23.476Z,1011.1
2023-05-18T01:27:24.651Z,1011.1
2023-05-18T01:28:25.808Z,1011.1
2023-05-18T01:29:26.974Z,1011.1
2023-05-18T01:30:28.143Z,1011.2
2023-05-18T01:31:29.548Z,1011.2
2023-05-18T01:32:31.177Z,1011.2
2023-05-18T01:33:32.346Z,1011.2
2023-05-18T01:34:33.512Z,1011.2
2023-05-18T01:35:34.681Z,1011.2
2023-05-18T01:36:35.838Z,1011.2
2023-05-18T01:37:37.009Z,1011.2
2023-05-18T01:38:38.173Z,1011.2
2023-05-18T01:39:39.356Z,1011.2
2023-05-18T01:40:40.504Z,1011.2
2023-05-18T01:41:41.667Z,1011.2
2023-05-18T01:42:42.834Z,1011.2
2023-05-18T01:43:44.003Z,1011.2
2023-05-18T01:44:45.190Z,1011.2
2023-05-18T01:45:46.359Z,1011.2
2023-05-18T01:46:47.697Z,1011.2
2023-05-18T01:47:48.989Z,1011.2
2023-05-18T01:48:50.223Z,1011.2
2023-05-18T01:49:51.349Z,1011.2
2023-05-18T01:50:52.512Z,1011.2
2023-05-18T01:51:53.676Z,1011.2
2023-05-18T01:52:54.872Z,1011.2
2023-05-18T01:53:56.067Z,1011.2
2023-05-18T01:54:57.244Z,1011.2
2023-05-18T01:55:58.413Z,1011.2
2023-05-18T01:56:59.569Z,1011.2
2023-05-18T01:58:01.958Z,1011.3
2023-05-18T01:59:03.116Z,1011.3
2023-05-18T02:00:04.281Z,1011.3
2023-05-18T02:01:05.446Z,1011.4
2023-05-18T02:02:06.732Z,1011.3
2023-05-18T02:03:08.051Z,1011.3
2023-05-18T02:04:09.723Z,1011.3
2023-05-18T02:05:11.232Z,1011.3
2023-05-18T02:06:12.396Z,1011.3
2023-05-18T02:07:13.571Z,1011.3
2023-05-18T02:08:14.729Z,1011.3
2023-05-18T02:09:15.896Z,1011.3
2023-05-18T02:10:17.058Z,1011.3
2023-05-18T02:11:18.223Z,1011.3
2023-05-18T02:12:19.423Z,1011.3
2023-05-18T02:13:20.651Z,1011.3
2023-05-18T02:14:21.854Z,1011.3
2023-05-18T02:15:23.033Z,1011.3
2023-05-18T02:16:24.244Z,1011.3
2023-05-18T02:17:25.491Z,1011.3
2023-05-18T02:18:26.674Z,1011.2
2023-05-18T02:19:27.814Z,1011.2
2023-05-18T02:20:30.694Z,1011.3
2023-05-18T02:21:31.922Z,1011.2
2023-05-18T02:22:33.046Z,1011.3
2023-05-18T02:23:34.729Z,1011.2
2023-05-18T02:24:36.804Z,1011.3
2023-05-18T02:25:37.966Z,1011.3
2023-05-18T02:26:39.131Z,1011.3
2023-05-18T02:27:40.297Z,1011.3
2023-05-18T02:28:41.476Z,1011.3
2023-05-18T02:29:42.655Z,1011.3
2023-05-18T02:30:43.955Z,1011.3
2023-05-18T02:31:45.172Z,1011.3
2023-05-18T02:32:46.595Z,1011.3
2023-05-18T02:33:47.979Z,1011.3
2023-05-18T02:34:49.145Z,1011.3
2023-05-18T02:35:50.309Z,1011.3
2023-05-18T02:36:51.494Z,1011.3
2023-05-18T02:37:52.640Z,1011.3
2023-05-18T02:38:53.804Z,1011.3
2023-05-18T02:39:54.971Z,1011.3
2023-05-18T02:40:56.137Z,1011.3
2023-05-18T02:41:57.301Z,1011.3
2023-05-18T02:42:58.467Z,1011.3
2023-05-18T02:43:59.638Z,1011.3
2023-05-18T02:45:00.800Z,1011.3
2023-05-18T02:46:02.131Z,1011.3
2023-05-18T02:47:03.313Z,1011.3
2023-05-18T02:48:04.609Z,1011.3
2023-05-18T02:49:05.880Z,1011.3
2023-05-18T02:50:07.043Z,1011.3
2023-05-18T02:51:08.208Z,1011.3
2023-05-18T02:52:09.375Z,1011.3
2023-05-18T02:53:10.538Z,1011.3
2023-05-18T02:54:11.707Z,1011.3
2023-05-18T02:55:12.872Z,1011.3
2023-05-18T02:56:14.048Z,1011.3
2023-05-18T02:57:15.213Z,1011.3
2023-05-18T02:58:16.377Z,1011.3
2023-05-18T02:59:17.542Z,1011.3
2023-05-18T03:00:18.713Z,1011.3
2023-05-18T03:01:19.966Z,1011.3
2023-05-18T03:02:21.232Z,1011.3
2023-05-18T03:03:22.642Z,1011.3
2023-05-18T03:04:23.943Z,1011.3
2023-05-18T03:05:25.106Z,1011.4
2023-05-18T03:06:26.322Z,1011.4
2023-05-18T03:07:27.905Z,1011.4
2023-05-18T03:08:29.097Z,1011.3
2023-05-18T03:09:30.239Z,1011.3
2023-05-18T03:10:31.416Z,1011.3
2023-05-18T03:11:32.569Z,1011.3
2023-05-18T03:12:33.735Z,1011.3
2023-05-18T03:13:34.905Z,1011.3
2023-05-18T03:14:36.072Z,1011.3
2023-05-18T03:15:37.232Z,1011.3
2023-05-18T03:16:38.494Z,1011.4
2023-05-18T03:17:39.870Z,1011.4
2023-05-18T03:18:41.162Z,1011.4
2023-05-18T03:19:42.297Z,1011.4
2023-05-18T03:20:43.466Z,1011.4
2023-05-18T03:21:44.631Z,1011.4
2023-05-18T03:22:45.794Z,1011.4
2023-05-18T03:23:46.957Z,1011.4
2023-05-18T03:24:48.141Z,1011.3
2023-05-18T03:25:49.290Z,1011.3
2023-05-18T03:26:50.532Z,1011.4
2023-05-18T03:27:51.696Z,1011.3
2023-05-18T03:28:52.860Z,1011.3
2023-05-18T03:29:54.026Z,1011.3
2023-05-18T03:30:55.237Z,1011.3
2023-05-18T03:31:56.464Z,1011.3
2023-05-18T03:32:57.774Z,1011.3
2023-05-18T03:33:58.999Z,1011.3
2023-05-18T03:35:00.138Z,1011.3
2023-05-18T03:36:01.305Z,1011.3
2023-05-18T03:37:02.477Z,1011.3
2023-05-18T03:38:03.638Z,1011.3
2023-05-18T03:39:04.810Z,1011.3
2023-05-18T03:40:05.971Z,1011.3
2023-05-18T03:41:07.138Z,1011.3
2023-05-18T03:42:08.308Z,1011.3
2023-05-18T03:43:09.485Z,1011.3
2023-05-18T03:44:10.812Z,1011.3
2023-05-18T03:45:11.978Z,1011.3
2023-05-18T03:46:13.184Z,1011.3
2023-05-18T03:47:14.358Z,1011.3
2023-05-18T03:48:15.542Z,1011.3
2023-05-18T03:49:16.698Z,1011.3
2023-05-18T03:50:20.572Z,1011.3
2023-05-18T03:51:21.732Z,1011.3
2023-05-18T03:52:23.022Z,1011.3
2023-05-18T03:53:24.185Z,1011.3
2023-05-18T03:54:25.390Z,1011.4
2023-05-18T03:55:26.549Z,1011.4
2023-05-18T03:56:27.715Z,1011.4
2023-05-18T03:57:28.878Z,1011.4
2023-05-18T03:58:30.057Z,1011.4
2023-05-18T03:59:31.213Z,1011.4
2023-05-18T04:00:32.387Z,1011.4
2023-05-18T04:01:33.618Z,1011.4
2023-05-18T04:02:35.084Z,1011.4
2023-05-18T04:03:36.506Z,1011.4
2023-05-18T04:04:37.797Z,1011.5
2023-05-18T04:05:38.943Z,1011.4
2023-05-18T04:06:40.118Z,1011.4
2023-05-18T04:07:41.269Z,1011.4
2023-05-18T04:08:42.435Z,1011.5
2023-05-18T04:09:43.601Z,1011.5
2023-05-18T04:10:44.768Z,1011.5
2023-05-18T04:11:45.936Z,1011.5
2023-05-18T04:12:47.104Z,1011.5
2023-05-18T04:13:48.300Z,1011.5
2023-05-18T04:14:49.458Z,1011.5
2023-05-18T04:15:50.627Z,1011.5
2023-05-18T04:16:51.870Z,1011.5
2023-05-18T04:17:53.171Z,1011.5
2023-05-18T04:18:54.438Z,1011.5
2023-05-18T04:19:55.642Z,1011.5
2023-05-18T04:20:56.792Z,1011.5
2023-05-18T04:21:57.952Z,1011.5
2023-05-18T04:22:59.115Z,1011.6
2023-05-18T04:24:00.288Z,1011.6
2023-05-18T04:25:01.449Z,1011.6
2023-05-18T04:26:02.615Z,1011.6
2023-05-18T04:27:03.780Z,1011.6
2023-05-18T04:28:04.944Z,1011.6
2023-05-18T04:29:06.109Z,1011.6
2023-05-18T04:30:07.275Z,1011.6
2023-05-18T04:31:08.439Z,1011.6
2023-05-18T04:32:09.820Z,1011.6
2023-05-18T04:33:11.214Z,1011.6
2023-05-18T04:34:12.408Z,1011.5
2023-05-18T04:35:13.636Z,1011.6
2023-05-18T04:36:14.765Z,1011.6
2023-05-18T04:37:15.937Z,1011.6
2023-05-18T04:38:17.104Z,1011.6
2023-05-18T04:39:18.279Z,1011.6
2023-05-18T04:40:19.433Z,1011.6
2023-05-18T04:41:20.618Z,1011.6
2023-05-18T04:42:21.770Z,1011.6
2023-05-18T04:43:22.935Z,1011.6
2023-05-18T04:44:24.097Z,1011.6
2023-05-18T04:45:25.263Z,1011.6
2023-05-18T04:46:26.559Z,1011.7
2023-05-18T04:47:27.875Z,1011.7
2023-05-18T04:48:29.037Z,1011.7
2023-05-18T04:49:30.204Z,1011.7
2023-05-18T04:50:31.396Z,1011.7
2023-05-18T04:51:32.535Z,1011.7
2023-05-18T04:52:33.725Z,1011.7
2023-05-18T04:53:34.871Z,1011.7
2023-05-18T04:54:36.073Z,1011.7
2023-05-18T04:55:37.228Z,1011.7
2023-05-18T04:56:38.391Z,1011.7
2023-05-18T04:57:39.538Z,1011.7
2023-05-18T04:58:40.726Z,1011.7
2023-05-18T04:59:41.893Z,1011.7
2023-05-18T05:00:43.034Z,1011.7
2023-05-18T05:01:44.284Z,1011.7
2023-05-18T05:02:45.806Z,1011.7
2023-05-18T05:03:47.460Z,1011.7
2023-05-18T05:04:48.819Z,1011.7
2023-05-18T05:05:50.045Z,1011.7
2023-05-18T05:06:51.314Z,1011.7
2023-05-18T05:07:52.475Z,1011.7
2023-05-18T05:08:53.677Z,1011.7
2023-05-18T05:09:55.065Z,1011.8
2023-05-18T05:10:56.230Z,1011.7
2023-05-18T05:11:57.406Z,1011.8
2023-05-18T05:12:58.592Z,1011.8
2023-05-18T05:13:59.742Z,1011.8
2023-05-18T05:15:00.947Z,1011.8
2023-05-18T05:16:02.290Z,1011.8
2023-05-18T05:17:03.596Z,1011.9
2023-05-18T05:18:04.760Z,1011.9
2023-05-18T05:19:06.095Z,1011.9
2023-05-18T05:20:07.452Z,1011.9
2023-05-18T05:21:08.689Z,1011.8
2023-05-18T05:22:09.816Z,1011.8
2023-05-18T05:23:11.071Z,1011.8
2023-05-18T05:24:12.263Z,1011.8
2023-05-18T05:25:13.490Z,1011.8
2023-05-18T05:26:14.644Z,1011.8
2023-05-18T05:27:15.821Z,1011.8
2023-05-18T05:28:16.966Z,1011.8
2023-05-18T05:29:18.131Z,1011.8
2023-05-18T05:30:19.304Z,1011.8
2023-05-18T05:31:20.585Z,1011.8
2023-05-18T05:32:21.771Z,1011.8
2023-05-18T05:33:22.956Z,1011.8
2023-05-18T05:34:24.106Z,1011.8
2023-05-18T05:35:25.296Z,1011.8
2023-05-18T05:36:26.538Z,1011.8
2023-05-18T05:37:27.683Z,1011.8
2023-05-18T05:38:28.885Z,1011.8
2023-05-18T05:39:30.042Z,1011.8
2023-05-18T05:40:31.176Z,1011.9
2023-05-18T05:41:32.899Z,1011.9
2023-05-18T05:42:34.072Z,1011.9
2023-05-18T05:43:35.269Z,1011.9
2023-05-18T05:44:36.849Z,1011.9
2023-05-18T05:45:38.838Z,1011.9
2023-05-18T05:46:39.996Z,1011.9
2023-05-18T05:47:41.422Z,1011.9
2023-05-18T05:48:42.642Z,1011.8
2023-05-18T05:49:43.789Z,1011.8
2023-05-18T05:50:44.983Z,1011.9
2023-05-18T05:51:46.227Z,1011.8
2023-05-18T05:52:47.388Z,1011.9
2023-05-18T05:53:48.567Z,1011.9
2023-05-18T05:54:49.703Z,1011.9
2023-05-18T05:55:50.894Z,1011.9
2023-05-18T05:56:52.065Z,1011.8
2023-05-18T05:57:53.268Z,1011.8
2023-05-18T05:58:54.447Z,1011.8
2023-05-18T05:59:55.589Z,1011.8
2023-05-18T06:00:56.754Z,1011.8
2023-05-18T06:02:00.988Z,1011.8
2023-05-18T06:03:02.314Z,1011.8
2023-05-18T06:04:03.524Z,1011.8
2023-05-18T06:05:04.680Z,1011.8
2023-05-18T06:06:05.887Z,1011.8
2023-05-18T06:07:07.196Z,1011.8
2023-05-18T06:08:08.368Z,1011.8
2023-05-18T06:09:09.512Z,1011.8
2023-05-18T06:10:10.705Z,1011.8
2023-05-18T06:11:12.097Z,1011.8
2023-05-18T06:12:13.253Z,1011.8
2023-05-18T06:13:14.395Z,1011.8
2023-05-18T06:14:15.589Z,1011.8
2023-05-18T06:15:16.804Z,1011.8
2023-05-18T06:16:18.000Z,1011.8
2023-05-18T06:17:19.209Z,1011.8
2023-05-18T06:18:20.437Z,1011.8
2023-05-18T06:19:21.749Z,1011.8
2023-05-18T06:20:25.777Z,1011.8
2023-05-18T06:21:26.973Z,1011.9
2023-05-18T06:22:28.444Z,1011.9
2023-05-18T06:23:29.709Z,1011.9
2023-05-18T06:24:30.879Z,1011.9
2023-05-18T06:25:32.440Z,1011.9
2023-05-18T06:26:33.994Z,1011.9
2023-05-18T06:27:35.159Z,1011.9
2023-05-18T06:28:36.389Z,1011.9
2023-05-18T06:29:37.663Z,1011.9
2023-05-18T06:30:38.926Z,1011.9
2023-05-18T06:31:40.225Z,1011.9
2023-05-18T06:32:44.400Z,1011.9
2023-05-18T06:33:45.677Z,1011.9
2023-05-18T06:34:47.008Z,1011.9
2023-05-18T06:35:48.531Z,1011.9
2023-05-18T06:36:49.833Z,1011.9
2023-05-18T06:37:51.028Z,1011.9
2023-05-18T06:38:52.171Z,1011.8
2023-05-18T06:39:53.372Z,1011.9
2023-05-18T06:40:54.587Z,1011.9
2023-05-18T06:41:55.740Z,1011.9
2023-05-18T06:42:56.884Z,1011.9
2023-05-18T06:43:58.063Z,1011.8
2023-05-18T06:44:59.239Z,1011.8
2023-05-18T06:46:00.474Z,1011.8
2023-05-18T06:47:01.716Z,1011.8
2023-05-18T06:48:02.897Z,1011.8
2023-05-18T06:49:04.068Z,1011.9
2023-05-18T06:50:05.272Z,1011.9
2023-05-18T06:51:06.522Z,1011.9
2023-05-18T06:52:07.743Z,1011.9
2023-05-18T06:53:09.049Z,1011.9
2023-05-18T06:54:10.186Z,1011.9
2023-05-18T06:55:11.377Z,1011.9
2023-05-18T06:56:12.569Z,1011.9
2023-05-18T06:57:13.749Z,1011.9
2023-05-18T06:58:14.979Z,1012
2023-05-18T06:59:16.135Z,1012
2023-05-18T07:00:17.313Z,1011.9
2023-05-18T07:01:18.564Z,1012
2023-05-18T07:02:19.728Z,1012
2023-05-18T07:03:21.022Z,1012
2023-05-18T07:04:22.160Z,1012
2023-05-18T07:05:23.372Z,1012
2023-05-18T07:06:24.535Z,1011.9
2023-05-18T07:07:25.724Z,1011.9
2023-05-18T07:08:26.985Z,1011.9
2023-05-18T07:09:28.136Z,1012
2023-05-18T07:10:29.391Z,1012
2023-05-18T07:11:30.569Z,1012
2023-05-18T07:12:31.727Z,1012
2023-05-18T07:13:32.919Z,1012
2023-05-18T07:14:34.074Z,1012
2023-05-18T07:15:35.648Z,1012
2023-05-18T07:16:37.094Z,1012
2023-05-18T07:17:38.393Z,1012
2023-05-18T07:18:39.714Z,1012
2023-05-18T07:19:40.893Z,1012
2023-05-18T07:20:42.125Z,1012
2023-05-18T07:21:43.290Z,1012
2023-05-18T07:22:44.470Z,1012
2023-05-18T07:23:45.711Z,1012
2023-05-18T07:24:46.849Z,1012
2023-05-18T07:25:48.040Z,1012
2023-05-18T07:26:49.175Z,1012
2023-05-18T07:27:50.350Z,1012
2023-05-18T07:28:51.510Z,1012
2023-05-18T07:29:52.675Z,1012
2023-05-18T07:30:53.844Z,1012
2023-05-18T07:31:55.342Z,1012
2023-05-18T07:32:56.611Z,1012
2023-05-18T07:33:57.795Z,1012
2023-05-18T07:34:58.998Z,1012
2023-05-18T07:36:03.133Z,1012
2023-05-18T07:37:04.392Z,1012
2023-05-18T07:38:05.540Z,1012
2023-05-18T07:39:06.732Z,1012
2023-05-18T07:40:07.911Z,1012
2023-05-18T07:41:12.025Z,1012
2023-05-18T07:42:13.679Z,1012
2023-05-18T07:43:17.716Z,1011.9
2023-05-18T07:44:47.515Z,1012
2023-05-18T07:45:51.467Z,1012
2023-05-18T07:46:56.412Z,1012
2023-05-18T07:48:00.652Z,1012
2023-05-18T07:49:04.741Z,1012
2023-05-18T07:50:06.073Z,1012
2023-05-18T07:51:12.344Z,1012
2023-05-18T07:52:16.461Z,1012
2023-05-18T07:53:20.381Z,1012
2023-05-18T07:54:27.027Z,1012
2023-05-18T07:55:28.427Z,1012
2023-05-18T07:56:29.967Z,1012
2023-05-18T07:57:33.954Z,1012
2023-05-18T07:58:35.135Z,1012
2023-05-18T07:59:36.340Z,1012
2023-05-18T08:00:40.278Z,1012
2023-05-18T08:01:44.208Z,1012
2023-05-18T08:02:50.300Z,1012
2023-05-18T08:04:11.120Z,1012
2023-05-18T08:05:12.464Z,1011.9
2023-05-18T08:06:13.685Z,1012
2023-05-18T08:07:17.840Z,1011.9
2023-05-18T08:08:26.518Z,1011.9
2023-05-18T08:09:30.537Z,1012
2023-05-18T08:10:36.657Z,1012
2023-05-18T08:11:45.803Z,1012
2023-05-18T08:12:50.443Z,1012
2023-05-18T08:13:54.064Z,1012
2023-05-18T08:14:55.220Z,1012
2023-05-18T08:16:12.759Z,1012
2023-05-18T08:17:14.226Z,1012
2023-05-18T08:19:24.628Z,1012
2023-05-18T08:20:26.024Z,1012
2023-05-18T08:21:27.210Z,1012
2023-05-18T08:22:34.174Z,1012
2023-05-18T08:23:41.151Z,1012
2023-05-18T08:24:45.164Z,1012
2023-05-18T08:25:49.185Z,1012
2023-05-18T08:26:50.357Z,1012
2023-05-18T08:27:54.460Z,1012
2023-05-18T08:28:55.720Z,1012
2023-05-18T08:30:04.658Z,1012
2023-05-18T08:31:07.999Z,1012
2023-05-18T08:32:09.314Z,1012
2023-05-18T08:33:20.484Z,1012
2023-05-18T08:34:21.801Z,1012
2023-05-18T08:35:22.975Z,1011.9
2023-05-18T08:36:26.833Z,1011.9
2023-05-18T08:37:28.022Z,1011.9
2023-05-18T08:38:29.269Z,1011.9
2023-05-18T08:39:30.483Z,1011.9
2023-05-18T08:40:34.573Z,1011.9
2023-05-18T08:41:35.702Z,1011.9
2023-05-18T08:42:50.264Z,1011.9
2023-05-18T08:43:54.572Z,1011.9
2023-05-18T08:44:58.475Z,1011.9
2023-05-18T08:46:02.352Z,1011.9
2023-05-18T08:47:05.760Z,1011.9
2023-05-18T08:48:07.124Z,1011.9
2023-05-18T08:49:08.755Z,1011.8
2023-05-18T08:50:12.633Z,1011.9
2023-05-18T08:51:13.786Z,1011.9
2023-05-18T08:52:14.976Z,1011.9
2023-05-18T08:53:16.219Z,1011.9
2023-05-18T08:54:17.403Z,1011.9
2023-05-18T08:55:26.912Z,1011.9
2023-05-18T08:56:31.300Z,1011.9
2023-05-18T08:57:35.480Z,1011.9
2023-05-18T08:58:42.452Z,1011.8
2023-05-18T08:59:46.593Z,1011.8
2023-05-18T09:01:53.892Z,1011.8
2023-05-18T09:04:06.702Z,1011.9
2023-05-18T09:06:16.389Z,1011.8
2023-05-18T09:08:33.238Z,1011.8
2023-05-18T09:09:34.553Z,1011.8
2023-05-18T09:10:35.740Z,1011.8
2023-05-18T09:11:39.111Z,1011.7
2023-05-18T09:12:40.375Z,1011.8
2023-05-18T09:13:41.626Z,1011.7
2023-05-18T09:14:44.976Z,1011.7
2023-05-18T09:15:46.238Z,1011.7
2023-05-18T09:16:53.393Z,1011.7
2023-05-18T09:17:54.583Z,1011.6
2023-05-18T09:18:58.610Z,1011.6
2023-05-18T09:19:59.788Z,1011.7
2023-05-18T09:21:05.884Z,1011.6
2023-05-18T09:22:07.028Z,1011.6
2023-05-18T09:23:13.385Z,1011.6
2023-05-18T09:25:07.304Z,1011.6
2023-05-18T09:26:18.795Z,1011.6
2023-05-18T09:27:31.674Z,1011.5
2023-05-18T09:28:35.596Z,1011.5
2023-05-18T09:29:44.556Z,1011.6
2023-05-18T09:30:50.866Z,1011.6
2023-05-18T09:32:12.998Z,1011.6
2023-05-18T09:33:14.416Z,1011.6
2023-05-18T09:34:15.715Z,1011.6
2023-05-18T09:35:16.961Z,1011.6
2023-05-18T09:36:23.670Z,1011.6
2023-05-18T09:37:24.843Z,1011.6
2023-05-18T09:38:28.474Z,1011.5
2023-05-18T09:39:32.050Z,1011.5
2023-05-18T09:40:33.206Z,1011.5
2023-05-18T09:41:34.368Z,1011.5
2023-05-18T09:42:35.580Z,1011.5
2023-05-18T09:43:39.588Z,1011.4
2023-05-18T09:44:40.750Z,1011.4
2023-05-18T09:45:41.910Z,1011.4
2023-05-18T09:46:43.139Z,1011.4
2023-05-18T09:47:44.384Z,1011.4
2023-05-18T09:48:45.661Z,1011.5
2023-05-18T09:49:46.883Z,1011.5
2023-05-18T09:50:48.041Z,1011.4
2023-05-18T09:51:49.220Z,1011.4
2023-05-18T09:52:50.406Z,1011.5
2023-05-18T09:53:51.603Z,1011.5
2023-05-18T09:54:52.738Z,1011.4
2023-05-18T09:55:53.913Z,1011.5
2023-05-18T09:57:12.504Z,1011.4
2023-05-18T09:58:13.768Z,1011.4
2023-05-18T09:59:14.899Z,1011.4
2023-05-18T10:00:16.068Z,1011.4
2023-05-18T10:01:17.321Z,1011.5
2023-05-18T10:02:21.388Z,1011.5
2023-05-18T10:03:22.609Z,1011.5
2023-05-18T10:04:23.802Z,1011.5
2023-05-18T10:05:25.007Z,1011.5
2023-05-18T10:06:26.174Z,1011.5
2023-05-18T10:07:30.114Z,1011.5
2023-05-18T10:08:31.279Z,1011.4
2023-05-18T10:09:32.446Z,1011.4
2023-05-18T10:10:33.932Z,1011.4
2023-05-18T10:11:35.076Z,1011.4
2023-05-18T10:12:36.256Z,1011.4
2023-05-18T10:13:37.518Z,1011.3
2023-05-18T10:14:38.650Z,1011.3
2023-05-18T10:15:39.810Z,1011.3
2023-05-18T10:16:41.048Z,1011.3
2023-05-18T10:17:42.333Z,1011.3
2023-05-18T10:18:43.712Z,1011.3
2023-05-18T10:19:44.935Z,1011.3
2023-05-18T10:20:46.103Z,1011.3
2023-05-18T10:21:47.272Z,1011.3
2023-05-18T10:22:48.436Z,1011.3
2023-05-18T10:23:49.603Z,1011.3
2023-05-18T10:24:50.776Z,1011.3
2023-05-18T10:25:51.938Z,1011.3
2023-05-18T10:26:56.392Z,1011.3
2023-05-18T10:27:58.794Z,1011.2
2023-05-18T10:29:00.204Z,1011.2
2023-05-18T10:30:01.333Z,1011.2
2023-05-18T10:31:02.558Z,1011.2
2023-05-18T10:32:08.040Z,1011.2
2023-05-18T10:33:28.942Z,1011.2
2023-05-18T10:34:31.231Z,1011.2
2023-05-18T10:35:32.394Z,1011.2
2023-05-18T10:36:33.563Z,1011.1
2023-05-18T10:37:34.731Z,1011.1
2023-05-18T10:38:35.896Z,1011.1
2023-05-18T10:39:37.097Z,1011.2
2023-05-18T10:40:38.260Z,1011.2
2023-05-18T10:41:39.424Z,1011.2
2023-05-18T10:42:42.762Z,1011.1
2023-05-18T10:43:43.894Z,1011.1
2023-05-18T10:44:45.228Z,1011.1
2023-05-18T10:45:46.359Z,1011.1
2023-05-18T10:46:47.640Z,1011.1
2023-05-18T10:47:49.118Z,1011.1
2023-05-18T10:48:50.357Z,1011.1
2023-05-18T10:49:51.518Z,1011.1
2023-05-18T10:50:52.691Z,1011.1
2023-05-18T10:51:53.911Z,1011.1
2023-05-18T10:52:55.092Z,1011.1
2023-05-18T10:53:56.754Z,1011.1
2023-05-18T10:54:57.919Z,1011.1
2023-05-18T10:55:59.085Z,1011.1
2023-05-18T10:57:00.250Z,1011.1
2023-05-18T10:58:01.428Z,1011.1
2023-05-18T10:59:02.589Z,1011.1
2023-05-18T11:00:03.894Z,1011.1
2023-05-18T11:01:05.019Z,1011.1
2023-05-18T11:02:06.373Z,1011.1
2023-05-18T11:03:07.747Z,1011.1
2023-05-18T11:04:09.049Z,1011
2023-05-18T11:05:10.324Z,1011
2023-05-18T11:06:11.586Z,1011
2023-05-18T11:07:12.717Z,1011
2023-05-18T11:08:13.883Z,1011
2023-05-18T11:09:15.117Z,1011.1
2023-05-18T11:10:16.329Z,1011.1
2023-05-18T11:11:19.910Z,1011
2023-05-18T11:12:21.114Z,1011.1
2023-05-18T11:13:29.584Z,1011.1
2023-05-18T11:14:30.734Z,1011.1
2023-05-18T11:15:31.953Z,1011
2023-05-18T11:16:33.179Z,1011.1
2023-05-18T11:17:34.603Z,1011
2023-05-18T11:18:36.092Z,1011.1
2023-05-18T11:19:37.384Z,1011.1
2023-05-18T11:20:38.596Z,1011.1
2023-05-18T11:21:39.767Z,1011
2023-05-18T11:22:40.934Z,1011
2023-05-18T11:23:42.230Z,1011
2023-05-18T11:24:43.412Z,1010.9
2023-05-18T11:25:44.569Z,1010.9
2023-05-18T11:26:45.736Z,1010.9
2023-05-18T11:27:46.922Z,1010.9
2023-05-18T11:28:50.116Z,1010.9
2023-05-18T11:30:15.040Z,1010.9
2023-05-18T11:31:16.867Z,1010.9
2023-05-18T11:32:30.740Z,1010.9
2023-05-18T11:33:32.443Z,1010.9
2023-05-18T11:34:33.590Z,1010.9
2023-05-18T11:35:35.057Z,1010.9
2023-05-18T11:36:36.259Z,1010.8
2023-05-18T11:37:37.428Z,1010.8
2023-05-18T11:38:38.601Z,1010.8
2023-05-18T11:39:59.042Z,1010.9
2023-05-18T11:41:05.326Z,1010.9
2023-05-18T11:42:06.496Z,1010.8
2023-05-18T11:43:07.737Z,1010.8
2023-05-18T11:44:08.939Z,1010.8
2023-05-18T11:45:10.084Z,1010.8
2023-05-18T11:46:11.247Z,1010.9
2023-05-18T11:47:12.470Z,1010.8
2023-05-18T11:48:13.921Z,1010.8
2023-05-18T11:49:15.286Z,1010.8
2023-05-18T11:50:16.443Z,1010.8
2023-05-18T11:51:17.637Z,1010.9
2023-05-18T11:52:18.833Z,1010.8
2023-05-18T11:53:19.976Z,1010.8
2023-05-18T11:54:21.132Z,1010.7
2023-05-18T11:55:22.308Z,1010.7
2023-05-18T11:56:23.471Z,1010.7
2023-05-18T11:57:24.637Z,1010.7
2023-05-18T11:58:25.832Z,1010.7
2023-05-18T11:59:27.120Z,1010.7
2023-05-18T12:00:28.278Z,1010.7
2023-05-18T12:01:29.499Z,1010.7
2023-05-18T12:02:30.816Z,1010.7
2023-05-18T12:03:32.298Z,1010.7
2023-05-18T12:04:33.602Z,1010.7
2023-05-18T12:05:34.880Z,1010.7
2023-05-18T12:06:36.052Z,1010.7
2023-05-18T12:07:37.219Z,1010.7
2023-05-18T12:08:38.388Z,1010.7
2023-05-18T12:09:39.548Z,1010.7
2023-05-18T12:10:40.716Z,1010.7
2023-05-18T12:11:41.891Z,1010.6
2023-05-18T12:12:43.082Z,1010.6
2023-05-18T12:13:44.251Z,1010.6
2023-05-18T12:14:45.413Z,1010.6
2023-05-18T12:15:46.580Z,1010.7
2023-05-18T12:16:47.973Z,1010.6
2023-05-18T12:17:49.454Z,1010.5
2023-05-18T12:18:50.702Z,1010.6
2023-05-18T12:19:52.112Z,1010.6
2023-05-18T12:20:53.438Z,1010.6
2023-05-18T12:21:55.316Z,1010.6
2023-05-18T12:22:59.831Z,1010.6
2023-05-18T12:24:01.020Z,1010.6
2023-05-18T12:25:02.163Z,1010.6
2023-05-18T12:26:03.328Z,1010.6
2023-05-18T12:27:07.834Z,1010.6
2023-05-18T12:28:08.996Z,1010.6
2023-05-18T12:29:10.158Z,1010.6
2023-05-18T12:30:11.400Z,1010.6
2023-05-18T12:31:12.647Z,1010.6
2023-05-18T12:32:13.860Z,1010.6
2023-05-18T12:33:15.204Z,1010.6
2023-05-18T12:34:16.388Z,1010.6
2023-05-18T12:35:17.554Z,1010.6
2023-05-18T12:36:18.724Z,1010.6
2023-05-18T12:37:23.905Z,1010.6
2023-05-18T12:38:38.728Z,1010.6
2023-05-18T12:39:39.896Z,1010.6
2023-05-18T12:40:41.069Z,1010.6
2023-05-18T12:41:42.231Z,1010.6
2023-05-18T12:42:43.398Z,1010.6
2023-05-18T12:43:44.571Z,1010.6
2023-05-18T12:44:45.725Z,1010.6
2023-05-18T12:45:46.896Z,1010.6
2023-05-18T12:46:48.463Z,1010.5
2023-05-18T12:47:49.761Z,1010.5
2023-05-18T12:48:50.977Z,1010.5
2023-05-18T12:49:52.115Z,1010.6
2023-05-18T12:50:53.367Z,1010.5
2023-05-18T12:51:54.534Z,1010.5
2023-05-18T12:52:55.747Z,1010.5
2023-05-18T12:53:56.954Z,1010.5
2023-05-18T12:54:58.122Z,1010.5
2023-05-18T12:55:59.286Z,1010.5
2023-05-18T12:57:02.614Z,1010.5
2023-05-18T12:58:03.856Z,1010.5
2023-05-18T12:59:05.028Z,1010.5
2023-05-18T13:00:06.202Z,1010.5
2023-05-18T13:01:07.451Z,1010.5
2023-05-18T13:02:08.758Z,1010.5
2023-05-18T13:03:14.997Z,1010.5
2023-05-18T13:04:17.770Z,1010.5
2023-05-18T13:05:19.208Z,1010.5
2023-05-18T13:06:20.375Z,1010.5
2023-05-18T13:07:21.535Z,1010.5